Kezdőlap
METAR-TAF:

METAR-TAF

Repülőterek :

Caracas, Venezuela

földrajzi szélesség: 10-36N, földrajzi hosszúság: 066-59W, magasság: 43 m

Jelenlegi meteorológiai megfigyelések

A jelentés 26 perccel ezelõtt készült, 19:00 UTC
Keleti szél 2 kt
Hőmérséklet 28°C
Páratartalom 62%
Légköri nyomás 1012 hPa
Látótávolság 10 km, vagy több
Szórványos felhőzet 1600 lábon

METAR: SVMI 191900Z 09002KT 9999 SCT016 28/20 Q1012

Idő: 15:26 (19:26 UTC)

Előrejelzés

A jelentés 1 órával és 26 perccel ezelõtt készült, 18:00 UTC
Az előrejelzés 19-én 18 óra UTC és 20-én 18 óra UTC között érvényes
Keleti szél 3 kt
Látótávolság 10 km, vagy több
Szakadozott felhőzet 1600 lábon
19-én 18 óra UTC és 19-én 23 óra UTC között fokozatosan kialakuló
Keleti szél 10 kt
Szórványos felhőzet 1600 lábon

TAF: SVMI 191800Z 1918/2018 09003KT 9999 BKN016 TX31/18Z TN24/09Z BECMG 1918/1923 09010KT SCT016

Meteorológiai megfigyelések és előrejelzések több, mint 4000 repülőtéren (METAR és TAF jelentéseket).

A térképen piros és sárga pontok jelzik az elérhető meteorológiai állomásokat.

Mozgassa az egeret a pont fölött, hogy megjelenjen az állomás neve.

Azután kattintson az időjárási megfigyelések és előrejelzések megtekintéséhez.

A térkép megváltoztatása: kattintson a fekete keresztel jelölt zöld gombra ráközelítéshez, a vonallal jelölt zöld gombra távolításhoz, vagy a zöld nyilakra a szomszédos térképek eléréséhez.


METAR-TAF: